sensor_id;sensor_type;location;lat;lon;timestamp;P1;durP1;ratioP1;P2;durP2;ratioP2
15637;SDS011;26604;53.596;10.042;2022-09-24T00:01:12;4.60;;;2.33;;
15637;SDS011;26604;53.596;10.042;2022-09-24T00:03:41;6.28;;;2.67;;
15637;SDS011;26604;53.596;10.042;2022-09-24T00:06:10;4.72;;;2.50;;
15637;SDS011;26604;53.596;10.042;2022-09-24T00:08:38;3.83;;;2.60;;
15637;SDS011;26604;53.596;10.042;2022-09-24T00:11:06;5.30;;;2.40;;
15637;SDS011;26604;53.596;10.042;2022-09-24T00:13:37;3.75;;;2.28;;
15637;SDS011;26604;53.596;10.042;2022-09-24T00:16:06;5.75;;;2.75;;
15637;SDS011;26604;53.596;10.042;2022-09-24T00:18:34;4.35;;;2.40;;
15637;SDS011;26604;53.596;10.042;2022-09-24T00:21:09;6.75;;;2.42;;
15637;SDS011;26604;53.596;10.042;2022-09-24T00:23:37;5.97;;;2.67;;
15637;SDS011;26604;53.596;10.042;2022-09-24T00:26:04;5.38;;;2.53;;
15637;SDS011;26604;53.596;10.042;2022-09-24T00:28:50;4.28;;;2.08;;
15637;SDS011;26604;53.596;10.042;2022-09-24T00:31:17;6.07;;;2.55;;
15637;SDS011;26604;53.596;10.042;2022-09-24T00:33:44;4.38;;;2.55;;
15637;SDS011;26604;53.596;10.042;2022-09-24T00:36:11;5.65;;;2.78;;
15637;SDS011;26604;53.596;10.042;2022-09-24T00:38:39;6.15;;;2.60;;
15637;SDS011;26604;53.596;10.042;2022-09-24T00:41:06;5.15;;;2.80;;
15637;SDS011;26604;53.596;10.042;2022-09-24T00:43:34;5.68;;;2.35;;
15637;SDS011;26604;53.596;10.042;2022-09-24T00:46:06;10.13;;;3.05;;
15637;SDS011;26604;53.596;10.042;2022-09-24T00:48:38;5.93;;;2.28;;
15637;SDS011;26604;53.596;10.042;2022-09-24T00:51:06;3.90;;;2.42;;
15637;SDS011;26604;53.596;10.042;2022-09-24T00:53:37;5.10;;;2.42;;
15637;SDS011;26604;53.596;10.042;2022-09-24T00:56:05;7.90;;;2.38;;
15637;SDS011;26604;53.596;10.042;2022-09-24T00:58:34;3.70;;;2.22;;
15637;SDS011;26604;53.596;10.042;2022-09-24T01:01:03;3.17;;;2.53;;
15637;SDS011;26604;53.596;10.042;2022-09-24T01:03:33;3.85;;;2.35;;
15637;SDS011;26604;53.596;10.042;2022-09-24T01:06:05;3.22;;;2.53;;
15637;SDS011;26604;53.596;10.042;2022-09-24T01:08:32;4.38;;;2.50;;
15637;SDS011;26604;53.596;10.042;2022-09-24T01:11:08;3.97;;;2.55;;
15637;SDS011;26604;53.596;10.042;2022-09-24T01:13:55;4.03;;;2.50;;
15637;SDS011;26604;53.596;10.042;2022-09-24T01:16:36;3.70;;;2.15;;
15637;SDS011;26604;53.596;10.042;2022-09-24T01:19:15;4.47;;;2.35;;
15637;SDS011;26604;53.596;10.042;2022-09-24T01:21:53;4.63;;;2.58;;
15637;SDS011;26604;53.596;10.042;2022-09-24T01:24:34;3.63;;;2.50;;
15637;SDS011;26604;53.596;10.042;2022-09-24T01:27:14;2.88;;;2.00;;
15637;SDS011;26604;53.596;10.042;2022-09-24T01:29:47;4.10;;;2.50;;
15637;SDS011;26604;53.596;10.042;2022-09-24T01:32:21;5.25;;;2.40;;
15637;SDS011;26604;53.596;10.042;2022-09-24T01:34:53;4.70;;;2.58;;
15637;SDS011;26604;53.596;10.042;2022-09-24T01:37:24;3.97;;;2.60;;
15637;SDS011;26604;53.596;10.042;2022-09-24T01:39:54;4.07;;;2.45;;
15637;SDS011;26604;53.596;10.042;2022-09-24T01:42:24;4.30;;;2.50;;
15637;SDS011;26604;53.596;10.042;2022-09-24T01:44:55;4.22;;;2.15;;
15637;SDS011;26604;53.596;10.042;2022-09-24T01:47:24;3.88;;;2.45;;
15637;SDS011;26604;53.596;10.042;2022-09-24T01:49:56;4.25;;;2.58;;
15637;SDS011;26604;53.596;10.042;2022-09-24T01:52:24;4.20;;;2.45;;
15637;SDS011;26604;53.596;10.042;2022-09-24T01:54:54;3.80;;;2.80;;
15637;SDS011;26604;53.596;10.042;2022-09-24T01:57:23;4.57;;;2.42;;
15637;SDS011;26604;53.596;10.042;2022-09-24T01:59:54;4.60;;;2.50;;
15637;SDS011;26604;53.596;10.042;2022-09-24T02:02:27;4.18;;;2.40;;
15637;SDS011;26604;53.596;10.042;2022-09-24T02:05:00;4.20;;;2.40;;
15637;SDS011;26604;53.596;10.042;2022-09-24T02:07:31;3.63;;;2.25;;
15637;SDS011;26604;53.596;10.042;2022-09-24T02:10:03;4.25;;;2.72;;
15637;SDS011;26604;53.596;10.042;2022-09-24T02:12:31;3.40;;;2.45;;
15637;SDS011;26604;53.596;10.042;2022-09-24T02:15:05;3.67;;;2.30;;
15637;SDS011;26604;53.596;10.042;2022-09-24T02:17:36;3.80;;;2.45;;
15637;SDS011;26604;53.596;10.042;2022-09-24T02:20:07;3.95;;;2.35;;
15637;SDS011;26604;53.596;10.042;2022-09-24T02:22:38;2.72;;;2.42;;
15637;SDS011;26604;53.596;10.042;2022-09-24T02:25:09;4.53;;;2.30;;
15637;SDS011;26604;53.596;10.042;2022-09-24T02:27:38;5.78;;;2.70;;
15637;SDS011;26604;53.596;10.042;2022-09-24T02:30:07;4.50;;;2.05;;
15637;SDS011;26604;53.596;10.042;2022-09-24T02:32:35;3.17;;;2.40;;
15637;SDS011;26604;53.596;10.042;2022-09-24T02:35:05;2.78;;;2.17;;
15637;SDS011;26604;53.596;10.042;2022-09-24T02:37:34;5.07;;;2.45;;
15637;SDS011;26604;53.596;10.042;2022-09-24T02:40:03;5.03;;;2.42;;
15637;SDS011;26604;53.596;10.042;2022-09-24T02:42:32;5.15;;;2.45;;
15637;SDS011;26604;53.596;10.042;2022-09-24T02:44:59;3.47;;;2.28;;
15637;SDS011;26604;53.596;10.042;2022-09-24T02:47:30;3.80;;;2.40;;
15637;SDS011;26604;53.596;10.042;2022-09-24T02:49:57;4.22;;;2.33;;
15637;SDS011;26604;53.596;10.042;2022-09-24T02:52:24;8.60;;;2.60;;
15637;SDS011;26604;53.596;10.042;2022-09-24T02:54:51;8.35;;;2.88;;
15637;SDS011;26604;53.596;10.042;2022-09-24T02:57:18;7.40;;;2.53;;
15637;SDS011;26604;53.596;10.042;2022-09-24T02:59:45;3.20;;;2.35;;
15637;SDS011;26604;53.596;10.042;2022-09-24T03:02:12;3.33;;;2.33;;
15637;SDS011;26604;53.596;10.042;2022-09-24T03:04:40;3.28;;;2.35;;
15637;SDS011;26604;53.596;10.042;2022-09-24T03:07:07;4.15;;;2.47;;
15637;SDS011;26604;53.596;10.042;2022-09-24T03:09:35;4.20;;;2.20;;
15637;SDS011;26604;53.596;10.042;2022-09-24T03:12:02;4.22;;;2.33;;
15637;SDS011;26604;53.596;10.042;2022-09-24T03:14:29;4.80;;;2.50;;
15637;SDS011;26604;53.596;10.042;2022-09-24T03:16:56;5.53;;;2.70;;
15637;SDS011;26604;53.596;10.042;2022-09-24T03:19:23;4.45;;;2.80;;
15637;SDS011;26604;53.596;10.042;2022-09-24T03:21:51;5.00;;;2.33;;
15637;SDS011;26604;53.596;10.042;2022-09-24T03:24:18;4.20;;;2.60;;
15637;SDS011;26604;53.596;10.042;2022-09-24T03:26:45;3.63;;;2.60;;
15637;SDS011;26604;53.596;10.042;2022-09-24T03:29:11;3.30;;;2.45;;
15637;SDS011;26604;53.596;10.042;2022-09-24T03:31:38;5.55;;;2.70;;
15637;SDS011;26604;53.596;10.042;2022-09-24T03:34:04;3.55;;;2.42;;
15637;SDS011;26604;53.596;10.042;2022-09-24T03:36:31;7.18;;;2.65;;
15637;SDS011;26604;53.596;10.042;2022-09-24T03:38:59;5.82;;;2.42;;
15637;SDS011;26604;53.596;10.042;2022-09-24T03:41:26;4.95;;;2.70;;
15637;SDS011;26604;53.596;10.042;2022-09-24T03:43:53;3.47;;;2.63;;
15637;SDS011;26604;53.596;10.042;2022-09-24T03:46:20;3.15;;;2.10;;
15637;SDS011;26604;53.596;10.042;2022-09-24T03:48:51;4.22;;;2.30;;
15637;SDS011;26604;53.596;10.042;2022-09-24T03:51:18;3.90;;;2.45;;
15637;SDS011;26604;53.596;10.042;2022-09-24T03:53:45;3.35;;;2.42;;
15637;SDS011;26604;53.596;10.042;2022-09-24T03:56:14;3.97;;;2.65;;
15637;SDS011;26604;53.596;10.042;2022-09-24T03:58:41;4.10;;;2.25;;
15637;SDS011;26604;53.596;10.042;2022-09-24T04:01:12;4.18;;;2.42;;
15637;SDS011;26604;53.596;10.042;2022-09-24T04:03:39;2.90;;;2.17;;
15637;SDS011;26604;53.596;10.042;2022-09-24T04:06:06;4.40;;;2.50;;
15637;SDS011;26604;53.596;10.042;2022-09-24T04:08:33;2.78;;;2.15;;
15637;SDS011;26604;53.596;10.042;2022-09-24T04:11:00;4.80;;;2.45;;
15637;SDS011;26604;53.596;10.042;2022-09-24T04:13:29;3.22;;;2.20;;
15637;SDS011;26604;53.596;10.042;2022-09-24T04:15:59;4.53;;;2.65;;
15637;SDS011;26604;53.596;10.042;2022-09-24T04:18:27;4.10;;;2.30;;
15637;SDS011;26604;53.596;10.042;2022-09-24T04:20:56;2.42;;;1.98;;
15637;SDS011;26604;53.596;10.042;2022-09-24T04:23:23;4.93;;;2.60;;
15637;SDS011;26604;53.596;10.042;2022-09-24T04:25:50;2.95;;;2.33;;
15637;SDS011;26604;53.596;10.042;2022-09-24T04:28:18;3.05;;;2.15;;
15637;SDS011;26604;53.596;10.042;2022-09-24T04:30:46;3.88;;;2.92;;
15637;SDS011;26604;53.596;10.042;2022-09-24T04:33:13;2.55;;;1.80;;
15637;SDS011;26604;53.596;10.042;2022-09-24T04:35:40;4.05;;;2.30;;
15637;SDS011;26604;53.596;10.042;2022-09-24T04:38:07;3.45;;;2.30;;
15637;SDS011;26604;53.596;10.042;2022-09-24T04:40:34;2.83;;;2.22;;
15637;SDS011;26604;53.596;10.042;2022-09-24T04:43:01;3.47;;;2.53;;
15637;SDS011;26604;53.596;10.042;2022-09-24T04:45:30;4.13;;;2.17;;
15637;SDS011;26604;53.596;10.042;2022-09-24T04:47:59;4.32;;;2.33;;
15637;SDS011;26604;53.596;10.042;2022-09-24T04:50:26;2.90;;;2.03;;
15637;SDS011;26604;53.596;10.042;2022-09-24T04:52:56;3.40;;;2.20;;
15637;SDS011;26604;53.596;10.042;2022-09-24T04:55:24;3.97;;;2.15;;
15637;SDS011;26604;53.596;10.042;2022-09-24T04:57:54;4.43;;;2.35;;
15637;SDS011;26604;53.596;10.042;2022-09-24T05:00:21;7.18;;;2.63;;
15637;SDS011;26604;53.596;10.042;2022-09-24T05:02:54;4.13;;;2.15;;
15637;SDS011;26604;53.596;10.042;2022-09-24T05:05:24;3.33;;;2.30;;
15637;SDS011;26604;53.596;10.042;2022-09-24T05:07:52;3.28;;;2.10;;
15637;SDS011;26604;53.596;10.042;2022-09-24T05:10:20;3.75;;;2.13;;
15637;SDS011;26604;53.596;10.042;2022-09-24T05:12:48;3.28;;;2.40;;
15637;SDS011;26604;53.596;10.042;2022-09-24T05:15:15;3.20;;;2.10;;
15637;SDS011;26604;53.596;10.042;2022-09-24T05:17:46;3.97;;;2.30;;
15637;SDS011;26604;53.596;10.042;2022-09-24T05:20:13;3.50;;;2.10;;
15637;SDS011;26604;53.596;10.042;2022-09-24T05:22:42;3.55;;;2.17;;
15637;SDS011;26604;53.596;10.042;2022-09-24T05:25:11;2.80;;;1.92;;
15637;SDS011;26604;53.596;10.042;2022-09-24T05:27:42;2.75;;;2.40;;
15637;SDS011;26604;53.596;10.042;2022-09-24T05:30:09;3.85;;;2.25;;
15637;SDS011;26604;53.596;10.042;2022-09-24T05:32:36;3.90;;;2.10;;
15637;SDS011;26604;53.596;10.042;2022-09-24T05:35:03;3.92;;;2.10;;
15637;SDS011;26604;53.596;10.042;2022-09-24T05:37:32;3.03;;;2.15;;
15637;SDS011;26604;53.596;10.042;2022-09-24T05:40:00;5.05;;;2.00;;
15637;SDS011;26604;53.596;10.042;2022-09-24T05:42:48;5.38;;;2.40;;
15637;SDS011;26604;53.596;10.042;2022-09-24T05:45:15;2.97;;;2.08;;
15637;SDS011;26604;53.596;10.042;2022-09-24T05:47:43;4.95;;;2.17;;
15637;SDS011;26604;53.596;10.042;2022-09-24T05:50:10;3.58;;;2.10;;
15637;SDS011;26604;53.596;10.042;2022-09-24T05:52:38;3.95;;;1.85;;
15637;SDS011;26604;53.596;10.042;2022-09-24T05:55:07;3.05;;;2.22;;
15637;SDS011;26604;53.596;10.042;2022-09-24T05:57:35;3.90;;;2.28;;
15637;SDS011;26604;53.596;10.042;2022-09-24T06:00:02;2.83;;;2.03;;
15637;SDS011;26604;53.596;10.042;2022-09-24T06:02:30;3.03;;;2.05;;
15637;SDS011;26604;53.596;10.042;2022-09-24T06:04:56;5.22;;;2.13;;
15637;SDS011;26604;53.596;10.042;2022-09-24T06:07:23;2.95;;;2.08;;
15637;SDS011;26604;53.596;10.042;2022-09-24T06:09:50;3.25;;;2.15;;
15637;SDS011;26604;53.596;10.042;2022-09-24T06:12:18;3.72;;;2.10;;
15637;SDS011;26604;53.596;10.042;2022-09-24T06:14:46;2.88;;;1.92;;
15637;SDS011;26604;53.596;10.042;2022-09-24T06:17:13;2.85;;;2.13;;
15637;SDS011;26604;53.596;10.042;2022-09-24T06:19:40;2.55;;;1.95;;
15637;SDS011;26604;53.596;10.042;2022-09-24T06:22:07;3.42;;;2.45;;
15637;SDS011;26604;53.596;10.042;2022-09-24T06:24:33;2.65;;;2.00;;
15637;SDS011;26604;53.596;10.042;2022-09-24T06:27:01;3.08;;;2.00;;
15637;SDS011;26604;53.596;10.042;2022-09-24T06:29:29;2.97;;;2.00;;
15637;SDS011;26604;53.596;10.042;2022-09-24T06:31:57;3.63;;;2.58;;
15637;SDS011;26604;53.596;10.042;2022-09-24T06:34:25;3.25;;;2.03;;
15637;SDS011;26604;53.596;10.042;2022-09-24T06:36:52;3.65;;;2.22;;
15637;SDS011;26604;53.596;10.042;2022-09-24T06:39:21;2.88;;;2.22;;
15637;SDS011;26604;53.596;10.042;2022-09-24T06:41:48;4.55;;;2.40;;
15637;SDS011;26604;53.596;10.042;2022-09-24T06:44:15;2.42;;;2.10;;
15637;SDS011;26604;53.596;10.042;2022-09-24T06:46:44;2.63;;;2.00;;
15637;SDS011;26604;53.596;10.042;2022-09-24T06:49:12;2.92;;;2.00;;
15637;SDS011;26604;53.596;10.042;2022-09-24T06:51:39;2.47;;;2.05;;
15637;SDS011;26604;53.596;10.042;2022-09-24T06:54:05;6.63;;;2.40;;
15637;SDS011;26604;53.596;10.042;2022-09-24T06:56:32;4.93;;;2.10;;
15637;SDS011;26604;53.596;10.042;2022-09-24T06:58:59;3.97;;;1.98;;
15637;SDS011;26604;53.596;10.042;2022-09-24T07:01:26;2.33;;;2.08;;
15637;SDS011;26604;53.596;10.042;2022-09-24T07:03:54;4.47;;;2.00;;
15637;SDS011;26604;53.596;10.042;2022-09-24T07:06:21;4.60;;;2.38;;
15637;SDS011;26604;53.596;10.042;2022-09-24T07:08:49;3.33;;;2.28;;
15637;SDS011;26604;53.596;10.042;2022-09-24T07:11:16;3.05;;;2.05;;
15637;SDS011;26604;53.596;10.042;2022-09-24T07:13:42;2.53;;;1.70;;
15637;SDS011;26604;53.596;10.042;2022-09-24T07:16:09;7.28;;;2.45;;
15637;SDS011;26604;53.596;10.042;2022-09-24T07:18:36;5.40;;;2.00;;
15637;SDS011;26604;53.596;10.042;2022-09-24T07:21:05;4.47;;;2.28;;
15637;SDS011;26604;53.596;10.042;2022-09-24T07:23:31;6.40;;;2.83;;
15637;SDS011;26604;53.596;10.042;2022-09-24T07:25:58;4.55;;;2.15;;
15637;SDS011;26604;53.596;10.042;2022-09-24T07:28:25;4.68;;;2.45;;
15637;SDS011;26604;53.596;10.042;2022-09-24T07:30:56;4.85;;;2.28;;
15637;SDS011;26604;53.596;10.042;2022-09-24T07:33:23;4.95;;;2.38;;
15637;SDS011;26604;53.596;10.042;2022-09-24T07:35:50;3.05;;;2.28;;
15637;SDS011;26604;53.596;10.042;2022-09-24T07:38:19;5.38;;;2.00;;
15637;SDS011;26604;53.596;10.042;2022-09-24T07:40:46;3.60;;;2.40;;
15637;SDS011;26604;53.596;10.042;2022-09-24T07:43:13;4.13;;;2.05;;
15637;SDS011;26604;53.596;10.042;2022-09-24T07:45:40;4.07;;;2.17;;
15637;SDS011;26604;53.596;10.042;2022-09-24T07:48:08;2.53;;;1.92;;
15637;SDS011;26604;53.596;10.042;2022-09-24T07:50:37;4.00;;;1.92;;
15637;SDS011;26604;53.596;10.042;2022-09-24T07:53:05;4.60;;;2.00;;
15637;SDS011;26604;53.596;10.042;2022-09-24T07:55:33;3.67;;;2.30;;
15637;SDS011;26604;53.596;10.042;2022-09-24T07:58:04;3.92;;;2.08;;
15637;SDS011;26604;53.596;10.042;2022-09-24T08:00:32;4.55;;;2.20;;
15637;SDS011;26604;53.596;10.042;2022-09-24T08:03:00;5.68;;;2.20;;
15637;SDS011;26604;53.596;10.042;2022-09-24T08:05:27;3.95;;;2.42;;
15637;SDS011;26604;53.596;10.042;2022-09-24T08:07:55;2.30;;;1.75;;
15637;SDS011;26604;53.596;10.042;2022-09-24T08:10:22;3.08;;;1.88;;
15637;SDS011;26604;53.596;10.042;2022-09-24T08:12:52;2.97;;;1.90;;
15637;SDS011;26604;53.596;10.042;2022-09-24T08:15:20;3.47;;;2.10;;
15637;SDS011;26604;53.596;10.042;2022-09-24T08:17:48;2.33;;;1.55;;
15637;SDS011;26604;53.596;10.042;2022-09-24T08:20:15;5.25;;;2.30;;
15637;SDS011;26604;53.596;10.042;2022-09-24T08:22:42;4.20;;;2.33;;
15637;SDS011;26604;53.596;10.042;2022-09-24T08:25:08;9.50;;;2.75;;
15637;SDS011;26604;53.596;10.042;2022-09-24T08:27:36;7.43;;;2.60;;
15637;SDS011;26604;53.596;10.042;2022-09-24T08:30:04;9.35;;;2.10;;
15637;SDS011;26604;53.596;10.042;2022-09-24T08:32:32;9.85;;;2.17;;
15637;SDS011;26604;53.596;10.042;2022-09-24T08:34:59;7.15;;;3.25;;
15637;SDS011;26604;53.596;10.042;2022-09-24T08:37:26;6.18;;;2.20;;
15637;SDS011;26604;53.596;10.042;2022-09-24T08:39:55;9.98;;;2.30;;
15637;SDS011;26604;53.596;10.042;2022-09-24T08:42:27;8.18;;;2.38;;
15637;SDS011;26604;53.596;10.042;2022-09-24T08:45:03;4.32;;;2.38;;
15637;SDS011;26604;53.596;10.042;2022-09-24T08:47:50;9.93;;;2.78;;
15637;SDS011;26604;53.596;10.042;2022-09-24T08:50:20;4.57;;;2.65;;
15637;SDS011;26604;53.596;10.042;2022-09-24T08:52:52;9.02;;;2.97;;
15637;SDS011;26604;53.596;10.042;2022-09-24T08:55:28;4.95;;;2.70;;
15637;SDS011;26604;53.596;10.042;2022-09-24T09:00:53;6.97;;;2.33;;
15637;SDS011;26604;53.596;10.042;2022-09-24T09:03:26;4.68;;;2.30;;
15637;SDS011;26604;53.596;10.042;2022-09-24T09:06:01;6.05;;;2.50;;
15637;SDS011;26604;53.596;10.042;2022-09-24T09:08:34;5.78;;;2.17;;
15637;SDS011;26604;53.596;10.042;2022-09-24T09:11:09;5.50;;;2.35;;
15637;SDS011;26604;53.596;10.042;2022-09-24T09:13:40;3.95;;;2.13;;
15637;SDS011;26604;53.596;10.042;2022-09-24T09:16:16;5.65;;;2.67;;
15637;SDS011;26604;53.596;10.042;2022-09-24T09:18:48;8.23;;;2.58;;
15637;SDS011;26604;53.596;10.042;2022-09-24T09:21:23;3.58;;;2.40;;
15637;SDS011;26604;53.596;10.042;2022-09-24T09:23:53;7.15;;;2.40;;
15637;SDS011;26604;53.596;10.042;2022-09-24T09:26:23;12.05;;;3.10;;
15637;SDS011;26604;53.596;10.042;2022-09-24T09:28:51;6.00;;;2.95;;
15637;SDS011;26604;53.596;10.042;2022-09-24T09:31:28;9.27;;;3.22;;
15637;SDS011;26604;53.596;10.042;2022-09-24T09:34:10;7.07;;;2.95;;
15637;SDS011;26604;53.596;10.042;2022-09-24T09:36:59;9.05;;;2.78;;
15637;SDS011;26604;53.596;10.042;2022-09-24T09:39:34;9.43;;;2.28;;
15637;SDS011;26604;53.596;10.042;2022-09-24T09:42:14;6.65;;;2.33;;
15637;SDS011;26604;53.596;10.042;2022-09-24T09:44:49;5.93;;;2.70;;
15637;SDS011;26604;53.596;10.042;2022-09-24T09:47:21;8.25;;;2.47;;
15637;SDS011;26604;53.596;10.042;2022-09-24T09:49:57;4.57;;;2.30;;
15637;SDS011;26604;53.596;10.042;2022-09-24T09:52:30;4.82;;;2.22;;
15637;SDS011;26604;53.596;10.042;2022-09-24T09:55:02;3.45;;;2.10;;
15637;SDS011;26604;53.596;10.042;2022-09-24T09:57:32;4.60;;;2.47;;
15637;SDS011;26604;53.596;10.042;2022-09-24T10:00:01;4.57;;;1.77;;
15637;SDS011;26604;53.596;10.042;2022-09-24T10:02:30;7.90;;;2.60;;
15637;SDS011;26604;53.596;10.042;2022-09-24T10:05:00;3.75;;;2.00;;
15637;SDS011;26604;53.596;10.042;2022-09-24T10:07:28;6.32;;;2.10;;
15637;SDS011;26604;53.596;10.042;2022-09-24T10:10:00;8.40;;;1.92;;
15637;SDS011;26604;53.596;10.042;2022-09-24T10:12:29;7.65;;;2.10;;
15637;SDS011;26604;53.596;10.042;2022-09-24T10:14:57;4.15;;;1.55;;
15637;SDS011;26604;53.596;10.042;2022-09-24T10:17:27;7.75;;;2.15;;
15637;SDS011;26604;53.596;10.042;2022-09-24T10:19:57;8.27;;;2.22;;
15637;SDS011;26604;53.596;10.042;2022-09-24T10:22:26;6.20;;;2.40;;
15637;SDS011;26604;53.596;10.042;2022-09-24T10:24:54;3.58;;;1.70;;
15637;SDS011;26604;53.596;10.042;2022-09-24T10:27:28;4.38;;;2.00;;
15637;SDS011;26604;53.596;10.042;2022-09-24T10:29:58;3.95;;;1.80;;
15637;SDS011;26604;53.596;10.042;2022-09-24T10:32:43;2.85;;;2.03;;
15637;SDS011;26604;53.596;10.042;2022-09-24T10:35:21;3.80;;;2.10;;
15637;SDS011;26604;53.596;10.042;2022-09-24T10:37:52;6.30;;;2.25;;
15637;SDS011;26604;53.596;10.042;2022-09-24T10:40:21;4.43;;;2.00;;
15637;SDS011;26604;53.596;10.042;2022-09-24T10:42:59;5.03;;;2.25;;
15637;SDS011;26604;53.596;10.042;2022-09-24T10:45:30;6.00;;;2.60;;
15637;SDS011;26604;53.596;10.042;2022-09-24T10:48:33;9.20;;;2.92;;
15637;SDS011;26604;53.596;10.042;2022-09-24T10:51:11;4.43;;;1.75;;
15637;SDS011;26604;53.596;10.042;2022-09-24T10:53:51;7.53;;;2.20;;
15637;SDS011;26604;53.596;10.042;2022-09-24T10:56:27;5.50;;;1.98;;
15637;SDS011;26604;53.596;10.042;2022-09-24T10:59:18;4.68;;;1.98;;
15637;SDS011;26604;53.596;10.042;2022-09-24T11:02:08;8.07;;;2.25;;
15637;SDS011;26604;53.596;10.042;2022-09-24T11:04:53;5.03;;;2.20;;
15637;SDS011;26604;53.596;10.042;2022-09-24T11:13:19;5.97;;;2.35;;
15637;SDS011;26604;53.596;10.042;2022-09-24T11:16:00;6.65;;;2.20;;
15637;SDS011;26604;53.596;10.042;2022-09-24T11:18:40;4.07;;;2.00;;
15637;SDS011;26604;53.596;10.042;2022-09-24T11:21:18;4.30;;;2.10;;
15637;SDS011;26604;53.596;10.042;2022-09-24T11:23:58;3.38;;;2.15;;
15637;SDS011;26604;53.596;10.042;2022-09-24T11:26:51;3.53;;;1.88;;
15637;SDS011;26604;53.596;10.042;2022-09-24T11:29:32;6.13;;;2.25;;
15637;SDS011;26604;53.596;10.042;2022-09-24T11:32:10;3.15;;;1.92;;
15637;SDS011;26604;53.596;10.042;2022-09-24T11:34:54;4.22;;;2.10;;
15637;SDS011;26604;53.596;10.042;2022-09-24T11:37:34;3.72;;;1.90;;
15637;SDS011;26604;53.596;10.042;2022-09-24T11:40:17;3.47;;;1.80;;
15637;SDS011;26604;53.596;10.042;2022-09-24T11:43:00;4.70;;;2.03;;
15637;SDS011;26604;53.596;10.042;2022-09-24T11:45:41;5.22;;;2.05;;
15637;SDS011;26604;53.596;10.042;2022-09-24T11:48:24;3.65;;;2.13;;
15637;SDS011;26604;53.596;10.042;2022-09-24T11:51:14;2.22;;;1.70;;
15637;SDS011;26604;53.596;10.042;2022-09-24T11:53:50;4.43;;;1.98;;
15637;SDS011;26604;53.596;10.042;2022-09-24T11:56:25;3.92;;;1.83;;
15637;SDS011;26604;53.596;10.042;2022-09-24T11:58:57;2.22;;;1.67;;
15637;SDS011;26604;53.596;10.042;2022-09-24T12:01:39;4.25;;;2.20;;
15637;SDS011;26604;53.596;10.042;2022-09-24T12:04:13;3.97;;;1.80;;
15637;SDS011;26604;53.596;10.042;2022-09-24T12:06:46;4.43;;;1.98;;
15637;SDS011;26604;53.596;10.042;2022-09-24T12:09:18;3.03;;;1.83;;
15637;SDS011;26604;53.596;10.042;2022-09-24T12:11:52;3.70;;;2.13;;
15637;SDS011;26604;53.596;10.042;2022-09-24T12:14:24;6.22;;;1.92;;
15637;SDS011;26604;53.596;10.042;2022-09-24T12:16:55;5.57;;;1.95;;
15637;SDS011;26604;53.596;10.042;2022-09-24T12:19:27;6.43;;;2.10;;
15637;SDS011;26604;53.596;10.042;2022-09-24T12:21:59;6.47;;;2.25;;
15637;SDS011;26604;53.596;10.042;2022-09-24T12:24:29;2.63;;;1.65;;
15637;SDS011;26604;53.596;10.042;2022-09-24T12:27:02;2.50;;;1.60;;
15637;SDS011;26604;53.596;10.042;2022-09-24T12:29:38;3.20;;;1.70;;
15637;SDS011;26604;53.596;10.042;2022-09-24T12:32:30;3.17;;;1.88;;
15637;SDS011;26604;53.596;10.042;2022-09-24T12:35:40;3.80;;;1.98;;
15637;SDS011;26604;53.596;10.042;2022-09-24T12:38:16;3.28;;;1.95;;
15637;SDS011;26604;53.596;10.042;2022-09-24T12:40:53;4.30;;;2.10;;
15637;SDS011;26604;53.596;10.042;2022-09-24T12:43:41;4.35;;;1.98;;
15637;SDS011;26604;53.596;10.042;2022-09-24T12:46:14;3.03;;;1.77;;
15637;SDS011;26604;53.596;10.042;2022-09-24T12:48:43;3.65;;;1.83;;
15637;SDS011;26604;53.596;10.042;2022-09-24T12:51:11;3.45;;;1.73;;
15637;SDS011;26604;53.596;10.042;2022-09-24T12:53:39;3.08;;;1.60;;
15637;SDS011;26604;53.596;10.042;2022-09-24T12:56:08;2.55;;;1.90;;
15637;SDS011;26604;53.596;10.042;2022-09-24T12:58:37;2.75;;;1.90;;
15637;SDS011;26604;53.596;10.042;2022-09-24T13:01:10;5.20;;;1.80;;
15637;SDS011;26604;53.596;10.042;2022-09-24T13:03:38;2.88;;;1.70;;
15637;SDS011;26604;53.596;10.042;2022-09-24T13:06:20;3.75;;;1.85;;
15637;SDS011;26604;53.596;10.042;2022-09-24T13:08:55;1.85;;;1.52;;
15637;SDS011;26604;53.596;10.042;2022-09-24T13:11:29;3.38;;;1.60;;
15637;SDS011;26604;53.596;10.042;2022-09-24T13:13:59;5.43;;;1.92;;
15637;SDS011;26604;53.596;10.042;2022-09-24T13:16:37;3.58;;;1.83;;
15637;SDS011;26604;53.596;10.042;2022-09-24T13:19:15;2.75;;;1.58;;
15637;SDS011;26604;53.596;10.042;2022-09-24T13:21:51;6.25;;;1.75;;
15637;SDS011;26604;53.596;10.042;2022-09-24T13:24:23;3.33;;;1.90;;
15637;SDS011;26604;53.596;10.042;2022-09-24T13:26:53;2.97;;;1.70;;
15637;SDS011;26604;53.596;10.042;2022-09-24T13:29:23;2.83;;;1.83;;
15637;SDS011;26604;53.596;10.042;2022-09-24T13:31:54;3.08;;;1.98;;
15637;SDS011;26604;53.596;10.042;2022-09-24T13:34:27;2.70;;;1.85;;
15637;SDS011;26604;53.596;10.042;2022-09-24T13:36:56;4.00;;;1.80;;
15637;SDS011;26604;53.596;10.042;2022-09-24T13:39:27;2.33;;;1.83;;
15637;SDS011;26604;53.596;10.042;2022-09-24T13:42:03;2.30;;;1.45;;
15637;SDS011;26604;53.596;10.042;2022-09-24T13:44:33;3.83;;;1.60;;
15637;SDS011;26604;53.596;10.042;2022-09-24T13:47:07;2.20;;;1.77;;
15637;SDS011;26604;53.596;10.042;2022-09-24T13:49:40;3.03;;;1.80;;
15637;SDS011;26604;53.596;10.042;2022-09-24T13:52:12;2.75;;;1.70;;
15637;SDS011;26604;53.596;10.042;2022-09-24T13:54:46;2.60;;;1.52;;
15637;SDS011;26604;53.596;10.042;2022-09-24T13:57:20;2.30;;;1.65;;
15637;SDS011;26604;53.596;10.042;2022-09-24T13:59:49;2.80;;;1.67;;
15637;SDS011;26604;53.596;10.042;2022-09-24T14:02:52;1.83;;;1.50;;
15637;SDS011;26604;53.596;10.042;2022-09-24T14:05:21;4.25;;;1.75;;
15637;SDS011;26604;53.596;10.042;2022-09-24T14:07:53;4.72;;;1.75;;
15637;SDS011;26604;53.596;10.042;2022-09-24T14:10:22;3.30;;;1.85;;
15637;SDS011;26604;53.596;10.042;2022-09-24T14:13:09;3.60;;;1.85;;
15637;SDS011;26604;53.596;10.042;2022-09-24T14:15:50;3.90;;;1.80;;
15637;SDS011;26604;53.596;10.042;2022-09-24T14:18:19;2.50;;;1.80;;
15637;SDS011;26604;53.596;10.042;2022-09-24T14:20:48;4.20;;;1.40;;
15637;SDS011;26604;53.596;10.042;2022-09-24T14:23:19;2.00;;;1.63;;
15637;SDS011;26604;53.596;10.042;2022-09-24T14:25:50;2.45;;;1.60;;
15637;SDS011;26604;53.596;10.042;2022-09-24T14:28:18;1.25;;;1.15;;
15637;SDS011;26604;53.596;10.042;2022-09-24T14:30:47;2.15;;;1.42;;
15637;SDS011;26604;53.596;10.042;2022-09-24T14:33:16;4.60;;;1.60;;
15637;SDS011;26604;53.596;10.042;2022-09-24T14:35:50;2.85;;;1.85;;
15637;SDS011;26604;53.596;10.042;2022-09-24T14:38:19;2.28;;;1.55;;
15637;SDS011;26604;53.596;10.042;2022-09-24T14:40:49;1.42;;;1.30;;
15637;SDS011;26604;53.596;10.042;2022-09-24T14:43:21;2.30;;;1.70;;
15637;SDS011;26604;53.596;10.042;2022-09-24T14:45:58;2.05;;;1.52;;
15637;SDS011;26604;53.596;10.042;2022-09-24T14:48:30;2.53;;;1.60;;
15637;SDS011;26604;53.596;10.042;2022-09-24T14:50:58;2.70;;;1.88;;
15637;SDS011;26604;53.596;10.042;2022-09-24T14:53:26;2.58;;;1.75;;
15637;SDS011;26604;53.596;10.042;2022-09-24T14:55:57;6.35;;;1.83;;
15637;SDS011;26604;53.596;10.042;2022-09-24T14:58:25;2.45;;;1.60;;
15637;SDS011;26604;53.596;10.042;2022-09-24T15:01:00;2.30;;;1.65;;
15637;SDS011;26604;53.596;10.042;2022-09-24T15:03:33;1.88;;;1.55;;
15637;SDS011;26604;53.596;10.042;2022-09-24T15:06:05;1.95;;;1.40;;